sensor_id;sensor_type;location;lat;lon;timestamp;P1;durP1;ratioP1;P2;durP2;ratioP2
17239;SDS011;9943;54.378;18.604;2022-10-31T00:01:15;22.45;;;14.65;;
17239;SDS011;9943;54.378;18.604;2022-10-31T00:03:46;22.15;;;14.43;;
17239;SDS011;9943;54.378;18.604;2022-10-31T00:06:22;23.33;;;15.35;;
17239;SDS011;9943;54.378;18.604;2022-10-31T00:08:52;25.33;;;15.30;;
17239;SDS011;9943;54.378;18.604;2022-10-31T00:11:23;23.58;;;15.60;;
17239;SDS011;9943;54.378;18.604;2022-10-31T00:13:56;27.10;;;16.45;;
17239;SDS011;9943;54.378;18.604;2022-10-31T00:16:30;24.75;;;16.40;;
17239;SDS011;9943;54.378;18.604;2022-10-31T00:19:09;23.15;;;15.55;;
17239;SDS011;9943;54.378;18.604;2022-10-31T00:21:54;25.38;;;15.82;;
17239;SDS011;9943;54.378;18.604;2022-10-31T00:24:25;22.33;;;15.77;;
17239;SDS011;9943;54.378;18.604;2022-10-31T00:26:54;26.58;;;15.27;;
17239;SDS011;9943;54.378;18.604;2022-10-31T00:29:23;22.30;;;14.82;;
17239;SDS011;9943;54.378;18.604;2022-10-31T00:31:54;22.27;;;15.65;;
17239;SDS011;9943;54.378;18.604;2022-10-31T00:34:29;26.05;;;16.15;;
17239;SDS011;9943;54.378;18.604;2022-10-31T00:37:02;22.98;;;15.40;;
17239;SDS011;9943;54.378;18.604;2022-10-31T00:39:32;23.27;;;15.75;;
17239;SDS011;9943;54.378;18.604;2022-10-31T00:42:06;24.50;;;15.30;;
17239;SDS011;9943;54.378;18.604;2022-10-31T00:44:36;23.05;;;16.52;;
17239;SDS011;9943;54.378;18.604;2022-10-31T00:47:19;22.33;;;16.38;;
17239;SDS011;9943;54.378;18.604;2022-10-31T00:49:48;22.55;;;15.15;;
17239;SDS011;9943;54.378;18.604;2022-10-31T00:52:20;22.52;;;16.02;;
17239;SDS011;9943;54.378;18.604;2022-10-31T00:54:55;20.02;;;14.95;;
17239;SDS011;9943;54.378;18.604;2022-10-31T00:57:24;25.52;;;17.00;;
17239;SDS011;9943;54.378;18.604;2022-10-31T00:59:54;21.42;;;15.57;;
17239;SDS011;9943;54.378;18.604;2022-10-31T01:02:24;23.50;;;15.57;;
17239;SDS011;9943;54.378;18.604;2022-10-31T01:04:53;21.55;;;15.25;;
17239;SDS011;9943;54.378;18.604;2022-10-31T01:07:22;23.27;;;15.32;;
17239;SDS011;9943;54.378;18.604;2022-10-31T01:09:51;23.92;;;15.32;;
17239;SDS011;9943;54.378;18.604;2022-10-31T01:12:21;19.95;;;14.95;;
17239;SDS011;9943;54.378;18.604;2022-10-31T01:14:52;18.92;;;14.95;;
17239;SDS011;9943;54.378;18.604;2022-10-31T01:17:21;23.25;;;15.05;;
17239;SDS011;9943;54.378;18.604;2022-10-31T01:19:54;18.88;;;14.73;;
17239;SDS011;9943;54.378;18.604;2022-10-31T01:22:24;19.67;;;14.88;;
17239;SDS011;9943;54.378;18.604;2022-10-31T01:24:54;22.20;;;16.35;;
17239;SDS011;9943;54.378;18.604;2022-10-31T01:27:24;21.90;;;15.57;;
17239;SDS011;9943;54.378;18.604;2022-10-31T01:29:53;21.58;;;15.07;;
17239;SDS011;9943;54.378;18.604;2022-10-31T01:32:23;19.75;;;15.13;;
17239;SDS011;9943;54.378;18.604;2022-10-31T01:34:59;20.00;;;15.00;;
17239;SDS011;9943;54.378;18.604;2022-10-31T01:37:31;26.63;;;16.63;;
17239;SDS011;9943;54.378;18.604;2022-10-31T01:40:00;27.92;;;19.05;;
17239;SDS011;9943;54.378;18.604;2022-10-31T01:42:37;29.23;;;20.48;;
17239;SDS011;9943;54.378;18.604;2022-10-31T01:45:09;29.80;;;20.60;;
17239;SDS011;9943;54.378;18.604;2022-10-31T01:47:49;35.83;;;22.45;;
17239;SDS011;9943;54.378;18.604;2022-10-31T01:50:26;34.15;;;22.83;;
17239;SDS011;9943;54.378;18.604;2022-10-31T01:53:04;27.92;;;18.55;;
17239;SDS011;9943;54.378;18.604;2022-10-31T01:55:39;26.52;;;17.95;;
17239;SDS011;9943;54.378;18.604;2022-10-31T01:58:16;28.58;;;17.38;;
17239;SDS011;9943;54.378;18.604;2022-10-31T02:00:51;27.92;;;18.52;;
17239;SDS011;9943;54.378;18.604;2022-10-31T02:03:28;27.95;;;17.85;;
17239;SDS011;9943;54.378;18.604;2022-10-31T02:06:13;29.60;;;20.25;;
17239;SDS011;9943;54.378;18.604;2022-10-31T02:08:54;35.55;;;23.75;;
17239;SDS011;9943;54.378;18.604;2022-10-31T02:11:30;40.72;;;21.33;;
17239;SDS011;9943;54.378;18.604;2022-10-31T02:14:03;41.38;;;23.33;;
17239;SDS011;9943;54.378;18.604;2022-10-31T02:16:35;40.28;;;23.95;;
17239;SDS011;9943;54.378;18.604;2022-10-31T02:19:09;42.47;;;24.20;;
17239;SDS011;9943;54.378;18.604;2022-10-31T02:21:51;38.00;;;24.75;;
17239;SDS011;9943;54.378;18.604;2022-10-31T02:24:37;39.22;;;23.88;;
17239;SDS011;9943;54.378;18.604;2022-10-31T02:27:22;37.25;;;24.20;;
17239;SDS011;9943;54.378;18.604;2022-10-31T02:30:10;37.58;;;25.02;;
17239;SDS011;9943;54.378;18.604;2022-10-31T02:32:50;42.85;;;26.67;;
17239;SDS011;9943;54.378;18.604;2022-10-31T02:35:35;38.75;;;25.65;;
17239;SDS011;9943;54.378;18.604;2022-10-31T02:38:23;37.95;;;25.23;;
17239;SDS011;9943;54.378;18.604;2022-10-31T02:41:09;41.13;;;26.13;;
17239;SDS011;9943;54.378;18.604;2022-10-31T02:43:54;41.05;;;26.35;;
17239;SDS011;9943;54.378;18.604;2022-10-31T02:46:39;41.95;;;25.40;;
17239;SDS011;9943;54.378;18.604;2022-10-31T02:49:24;48.08;;;24.45;;
17239;SDS011;9943;54.378;18.604;2022-10-31T02:52:13;44.72;;;25.23;;
17239;SDS011;9943;54.378;18.604;2022-10-31T02:55:11;55.47;;;26.13;;
17239;SDS011;9943;54.378;18.604;2022-10-31T02:58:00;51.85;;;25.90;;
17239;SDS011;9943;54.378;18.604;2022-10-31T03:00:41;53.40;;;25.67;;
17239;SDS011;9943;54.378;18.604;2022-10-31T03:03:25;55.83;;;25.80;;
17239;SDS011;9943;54.378;18.604;2022-10-31T03:06:00;60.17;;;25.67;;
17239;SDS011;9943;54.378;18.604;2022-10-31T03:08:39;51.00;;;24.88;;
17239;SDS011;9943;54.378;18.604;2022-10-31T03:11:16;48.67;;;25.83;;
17239;SDS011;9943;54.378;18.604;2022-10-31T03:13:58;46.97;;;26.40;;
17239;SDS011;9943;54.378;18.604;2022-10-31T03:17:29;50.33;;;26.42;;
17239;SDS011;9943;54.378;18.604;2022-10-31T03:20:11;57.75;;;27.52;;
17239;SDS011;9943;54.378;18.604;2022-10-31T03:22:54;51.85;;;26.48;;
17239;SDS011;9943;54.378;18.604;2022-10-31T03:25:33;57.60;;;26.38;;
17239;SDS011;9943;54.378;18.604;2022-10-31T03:28:13;54.03;;;26.55;;
17239;SDS011;9943;54.378;18.604;2022-10-31T03:30:51;54.03;;;26.40;;
17239;SDS011;9943;54.378;18.604;2022-10-31T03:33:26;61.08;;;28.55;;
17239;SDS011;9943;54.378;18.604;2022-10-31T03:35:57;66.72;;;29.67;;
17239;SDS011;9943;54.378;18.604;2022-10-31T03:38:35;52.83;;;27.20;;
17239;SDS011;9943;54.378;18.604;2022-10-31T03:41:10;59.65;;;25.30;;
17239;SDS011;9943;54.378;18.604;2022-10-31T03:43:59;52.53;;;23.95;;
17239;SDS011;9943;54.378;18.604;2022-10-31T03:46:33;57.70;;;25.45;;
17239;SDS011;9943;54.378;18.604;2022-10-31T03:49:03;61.92;;;27.05;;
17239;SDS011;9943;54.378;18.604;2022-10-31T03:51:39;77.40;;;27.20;;
17239;SDS011;9943;54.378;18.604;2022-10-31T03:54:27;86.07;;;28.15;;
17239;SDS011;9943;54.378;18.604;2022-10-31T03:57:05;73.65;;;26.48;;
17239;SDS011;9943;54.378;18.604;2022-10-31T03:59:42;67.75;;;27.00;;
17239;SDS011;9943;54.378;18.604;2022-10-31T04:02:43;65.88;;;27.15;;
17239;SDS011;9943;54.378;18.604;2022-10-31T04:05:16;56.90;;;26.08;;
17239;SDS011;9943;54.378;18.604;2022-10-31T04:07:51;56.58;;;24.98;;
17239;SDS011;9943;54.378;18.604;2022-10-31T04:10:27;68.32;;;26.02;;
17239;SDS011;9943;54.378;18.604;2022-10-31T04:13:01;62.60;;;26.05;;
17239;SDS011;9943;54.378;18.604;2022-10-31T04:15:37;77.57;;;26.73;;
17239;SDS011;9943;54.378;18.604;2022-10-31T04:18:08;79.18;;;27.38;;
17239;SDS011;9943;54.378;18.604;2022-10-31T04:21:00;77.80;;;27.85;;
17239;SDS011;9943;54.378;18.604;2022-10-31T04:23:33;68.45;;;27.25;;
17239;SDS011;9943;54.378;18.604;2022-10-31T04:26:15;69.43;;;26.60;;
17239;SDS011;9943;54.378;18.604;2022-10-31T04:28:46;55.35;;;26.90;;
17239;SDS011;9943;54.378;18.604;2022-10-31T04:31:17;49.55;;;26.80;;
17239;SDS011;9943;54.378;18.604;2022-10-31T04:33:56;46.65;;;26.55;;
17239;SDS011;9943;54.378;18.604;2022-10-31T04:36:44;44.70;;;26.77;;
17239;SDS011;9943;54.378;18.604;2022-10-31T04:39:32;48.72;;;29.17;;
17239;SDS011;9943;54.378;18.604;2022-10-31T04:42:16;50.22;;;29.02;;
17239;SDS011;9943;54.378;18.604;2022-10-31T04:44:54;48.38;;;29.55;;
17239;SDS011;9943;54.378;18.604;2022-10-31T04:47:38;49.30;;;29.10;;
17239;SDS011;9943;54.378;18.604;2022-10-31T04:50:18;45.38;;;29.00;;
17239;SDS011;9943;54.378;18.604;2022-10-31T04:53:07;47.97;;;29.85;;
17239;SDS011;9943;54.378;18.604;2022-10-31T04:55:39;52.20;;;31.52;;
17239;SDS011;9943;54.378;18.604;2022-10-31T04:58:32;62.33;;;32.83;;
17239;SDS011;9943;54.378;18.604;2022-10-31T05:01:09;67.97;;;35.30;;
17239;SDS011;9943;54.378;18.604;2022-10-31T05:04:03;58.85;;;32.53;;
17239;SDS011;9943;54.378;18.604;2022-10-31T05:06:55;65.05;;;34.63;;
17239;SDS011;9943;54.378;18.604;2022-10-31T05:12:21;72.22;;;35.30;;
17239;SDS011;9943;54.378;18.604;2022-10-31T05:15:05;75.20;;;35.28;;
17239;SDS011;9943;54.378;18.604;2022-10-31T05:17:36;87.15;;;38.22;;
17239;SDS011;9943;54.378;18.604;2022-10-31T05:20:11;77.93;;;35.15;;
17239;SDS011;9943;54.378;18.604;2022-10-31T05:22:49;89.55;;;37.88;;
17239;SDS011;9943;54.378;18.604;2022-10-31T05:32:43;73.60;;;34.80;;
17239;SDS011;9943;54.378;18.604;2022-10-31T05:35:42;69.10;;;36.83;;
17239;SDS011;9943;54.378;18.604;2022-10-31T05:38:46;81.72;;;34.88;;
17239;SDS011;9943;54.378;18.604;2022-10-31T05:41:22;75.93;;;37.03;;
17239;SDS011;9943;54.378;18.604;2022-10-31T05:48:12;82.22;;;35.05;;
17239;SDS011;9943;54.378;18.604;2022-10-31T05:50:54;95.38;;;38.50;;
17239;SDS011;9943;54.378;18.604;2022-10-31T05:53:36;96.78;;;39.38;;
17239;SDS011;9943;54.378;18.604;2022-10-31T05:56:14;91.35;;;38.60;;
17239;SDS011;9943;54.378;18.604;2022-10-31T05:59:32;91.13;;;36.70;;
17239;SDS011;9943;54.378;18.604;2022-10-31T06:02:08;85.30;;;36.53;;
17239;SDS011;9943;54.378;18.604;2022-10-31T06:09:00;79.78;;;35.05;;
17239;SDS011;9943;54.378;18.604;2022-10-31T06:11:34;80.00;;;35.47;;
17239;SDS011;9943;54.378;18.604;2022-10-31T06:14:10;81.60;;;35.72;;
17239;SDS011;9943;54.378;18.604;2022-10-31T06:16:51;80.95;;;35.78;;
17239;SDS011;9943;54.378;18.604;2022-10-31T06:19:29;76.32;;;33.90;;
17239;SDS011;9943;54.378;18.604;2022-10-31T06:22:03;76.10;;;32.40;;
17239;SDS011;9943;54.378;18.604;2022-10-31T06:24:49;75.13;;;33.90;;
17239;SDS011;9943;54.378;18.604;2022-10-31T06:27:47;78.20;;;34.60;;
17239;SDS011;9943;54.378;18.604;2022-10-31T06:30:45;72.72;;;33.13;;
17239;SDS011;9943;54.378;18.604;2022-10-31T06:33:40;68.78;;;32.90;;
17239;SDS011;9943;54.378;18.604;2022-10-31T06:36:14;67.35;;;31.98;;
17239;SDS011;9943;54.378;18.604;2022-10-31T06:39:35;65.95;;;32.15;;
17239;SDS011;9943;54.378;18.604;2022-10-31T06:45:18;66.43;;;31.30;;
17239;SDS011;9943;54.378;18.604;2022-10-31T06:48:23;66.32;;;29.92;;
17239;SDS011;9943;54.378;18.604;2022-10-31T06:51:05;63.65;;;30.33;;
17239;SDS011;9943;54.378;18.604;2022-10-31T06:53:41;61.50;;;31.23;;
17239;SDS011;9943;54.378;18.604;2022-10-31T06:56:17;63.45;;;31.20;;
17239;SDS011;9943;54.378;18.604;2022-10-31T06:59:34;53.80;;;28.58;;
17239;SDS011;9943;54.378;18.604;2022-10-31T07:02:18;63.65;;;29.90;;
17239;SDS011;9943;54.378;18.604;2022-10-31T07:05:05;57.65;;;28.83;;
17239;SDS011;9943;54.378;18.604;2022-10-31T07:07:51;60.22;;;28.65;;
17239;SDS011;9943;54.378;18.604;2022-10-31T07:10:26;55.60;;;28.17;;
17239;SDS011;9943;54.378;18.604;2022-10-31T07:13:01;53.30;;;27.75;;
17239;SDS011;9943;54.378;18.604;2022-10-31T07:15:34;55.17;;;28.50;;
17239;SDS011;9943;54.378;18.604;2022-10-31T07:24:19;55.72;;;29.02;;
17239;SDS011;9943;54.378;18.604;2022-10-31T07:26:59;58.78;;;30.67;;
17239;SDS011;9943;54.378;18.604;2022-10-31T07:30:05;58.75;;;29.27;;
17239;SDS011;9943;54.378;18.604;2022-10-31T07:32:48;60.38;;;30.98;;
17239;SDS011;9943;54.378;18.604;2022-10-31T07:35:22;58.28;;;29.58;;
17239;SDS011;9943;54.378;18.604;2022-10-31T07:37:57;54.42;;;28.55;;
17239;SDS011;9943;54.378;18.604;2022-10-31T07:40:38;54.95;;;29.65;;
17239;SDS011;9943;54.378;18.604;2022-10-31T07:43:29;51.35;;;29.08;;
17239;SDS011;9943;54.378;18.604;2022-10-31T07:46:03;54.78;;;29.17;;
17239;SDS011;9943;54.378;18.604;2022-10-31T07:48:49;45.70;;;27.77;;
17239;SDS011;9943;54.378;18.604;2022-10-31T07:51:47;49.83;;;27.73;;
17239;SDS011;9943;54.378;18.604;2022-10-31T08:01:28;46.30;;;26.25;;
17239;SDS011;9943;54.378;18.604;2022-10-31T08:04:06;44.60;;;25.92;;
17239;SDS011;9943;54.378;18.604;2022-10-31T08:09:58;37.67;;;23.90;;
17239;SDS011;9943;54.378;18.604;2022-10-31T08:12:58;38.88;;;25.15;;
17239;SDS011;9943;54.378;18.604;2022-10-31T08:15:30;43.88;;;25.70;;
17239;SDS011;9943;54.378;18.604;2022-10-31T08:18:16;42.20;;;25.00;;
17239;SDS011;9943;54.378;18.604;2022-10-31T08:21:30;40.55;;;24.58;;
17239;SDS011;9943;54.378;18.604;2022-10-31T08:24:36;39.65;;;24.58;;
17239;SDS011;9943;54.378;18.604;2022-10-31T08:27:26;38.60;;;25.05;;
17239;SDS011;9943;54.378;18.604;2022-10-31T08:30:58;40.38;;;25.10;;
17239;SDS011;9943;54.378;18.604;2022-10-31T08:37:24;39.47;;;25.77;;
17239;SDS011;9943;54.378;18.604;2022-10-31T08:40:20;38.17;;;25.00;;
17239;SDS011;9943;54.378;18.604;2022-10-31T08:43:17;35.58;;;25.02;;
17239;SDS011;9943;54.378;18.604;2022-10-31T08:45:59;42.15;;;24.58;;
17239;SDS011;9943;54.378;18.604;2022-10-31T08:52:44;37.85;;;23.75;;
17239;SDS011;9943;54.378;18.604;2022-10-31T08:55:20;39.65;;;24.55;;
17239;SDS011;9943;54.378;18.604;2022-10-31T08:58:07;39.22;;;24.30;;
17239;SDS011;9943;54.378;18.604;2022-10-31T09:00:40;39.10;;;24.75;;
17239;SDS011;9943;54.378;18.604;2022-10-31T09:03:30;43.80;;;29.77;;
17239;SDS011;9943;54.378;18.604;2022-10-31T09:06:20;40.35;;;25.38;;
17239;SDS011;9943;54.378;18.604;2022-10-31T09:09:03;42.35;;;27.40;;
17239;SDS011;9943;54.378;18.604;2022-10-31T09:17:45;44.53;;;27.88;;
17239;SDS011;9943;54.378;18.604;2022-10-31T09:24:01;50.22;;;30.00;;
17239;SDS011;9943;54.378;18.604;2022-10-31T09:26:41;46.03;;;28.45;;
17239;SDS011;9943;54.378;18.604;2022-10-31T09:29:35;48.40;;;30.55;;
17239;SDS011;9943;54.378;18.604;2022-10-31T09:32:33;49.78;;;30.35;;
17239;SDS011;9943;54.378;18.604;2022-10-31T09:35:10;49.85;;;28.92;;
17239;SDS011;9943;54.378;18.604;2022-10-31T09:38:10;51.10;;;31.05;;
17239;SDS011;9943;54.378;18.604;2022-10-31T09:44:19;51.20;;;32.80;;
17239;SDS011;9943;54.378;18.604;2022-10-31T09:47:46;51.95;;;31.58;;
17239;SDS011;9943;54.378;18.604;2022-10-31T09:50:32;48.95;;;30.48;;
17239;SDS011;9943;54.378;18.604;2022-10-31T09:53:23;50.35;;;30.88;;
17239;SDS011;9943;54.378;18.604;2022-10-31T09:56:20;52.97;;;31.45;;
17239;SDS011;9943;54.378;18.604;2022-10-31T10:06:18;57.88;;;33.80;;
17239;SDS011;9943;54.378;18.604;2022-10-31T10:08:56;53.47;;;33.55;;
17239;SDS011;9943;54.378;18.604;2022-10-31T10:14:57;58.53;;;33.00;;
17239;SDS011;9943;54.378;18.604;2022-10-31T10:17:45;49.63;;;32.60;;
17239;SDS011;9943;54.378;18.604;2022-10-31T10:20:45;55.28;;;32.15;;
17239;SDS011;9943;54.378;18.604;2022-10-31T10:23:38;51.42;;;31.63;;
17239;SDS011;9943;54.378;18.604;2022-10-31T10:26:29;51.47;;;31.10;;
17239;SDS011;9943;54.378;18.604;2022-10-31T10:29:11;51.40;;;31.38;;
17239;SDS011;9943;54.378;18.604;2022-10-31T10:32:00;50.92;;;29.65;;
17239;SDS011;9943;54.378;18.604;2022-10-31T10:34:46;46.97;;;29.63;;
17239;SDS011;9943;54.378;18.604;2022-10-31T10:37:39;49.92;;;30.42;;
17239;SDS011;9943;54.378;18.604;2022-10-31T10:40:53;52.63;;;30.88;;
17239;SDS011;9943;54.378;18.604;2022-10-31T10:43:51;58.05;;;31.27;;
17239;SDS011;9943;54.378;18.604;2022-10-31T10:49:49;48.78;;;31.25;;
17239;SDS011;9943;54.378;18.604;2022-10-31T10:52:35;48.42;;;28.65;;
17239;SDS011;9943;54.378;18.604;2022-10-31T10:55:26;51.15;;;30.25;;
17239;SDS011;9943;54.378;18.604;2022-10-31T11:01:12;57.65;;;32.28;;
17239;SDS011;9943;54.378;18.604;2022-10-31T11:07:51;54.67;;;30.90;;
17239;SDS011;9943;54.378;18.604;2022-10-31T11:11:38;58.05;;;32.35;;
17239;SDS011;9943;54.378;18.604;2022-10-31T11:21:29;52.83;;;31.27;;
17239;SDS011;9943;54.378;18.604;2022-10-31T11:25:17;54.85;;;29.77;;
17239;SDS011;9943;54.378;18.604;2022-10-31T11:31:05;56.55;;;31.05;;
17239;SDS011;9943;54.378;18.604;2022-10-31T11:33:57;56.13;;;31.88;;
17239;SDS011;9943;54.378;18.604;2022-10-31T11:36:33;49.67;;;29.40;;
17239;SDS011;9943;54.378;18.604;2022-10-31T11:39:31;52.92;;;29.67;;
17239;SDS011;9943;54.378;18.604;2022-10-31T11:42:45;51.78;;;27.83;;
17239;SDS011;9943;54.378;18.604;2022-10-31T11:45:49;53.17;;;28.67;;
17239;SDS011;9943;54.378;18.604;2022-10-31T11:48:45;46.75;;;27.23;;
17239;SDS011;9943;54.378;18.604;2022-10-31T11:52:07;48.35;;;27.20;;
17239;SDS011;9943;54.378;18.604;2022-10-31T11:55:36;45.08;;;27.15;;
17239;SDS011;9943;54.378;18.604;2022-10-31T11:58:36;46.65;;;27.48;;
17239;SDS011;9943;54.378;18.604;2022-10-31T12:01:46;46.08;;;27.60;;
17239;SDS011;9943;54.378;18.604;2022-10-31T12:07:37;45.13;;;26.73;;
17239;SDS011;9943;54.378;18.604;2022-10-31T12:10:34;45.78;;;27.25;;
17239;SDS011;9943;54.378;18.604;2022-10-31T12:14:15;46.20;;;26.73;;
17239;SDS011;9943;54.378;18.604;2022-10-31T12:17:35;47.10;;;26.55;;
17239;SDS011;9943;54.378;18.604;2022-10-31T12:24:18;40.63;;;25.52;;
17239;SDS011;9943;54.378;18.604;2022-10-31T12:31:12;31.83;;;22.20;;
17239;SDS011;9943;54.378;18.604;2022-10-31T12:34:32;32.08;;;21.02;;
17239;SDS011;9943;54.378;18.604;2022-10-31T12:48:52;30.50;;;22.00;;
17239;SDS011;9943;54.378;18.604;2022-10-31T12:52:30;30.60;;;21.88;;
17239;SDS011;9943;54.378;18.604;2022-10-31T12:56:23;34.08;;;23.17;;
17239;SDS011;9943;54.378;18.604;2022-10-31T13:20:11;34.88;;;24.40;;
17239;SDS011;9943;54.378;18.604;2022-10-31T13:26:06;34.85;;;24.92;;
17239;SDS011;9943;54.378;18.604;2022-10-31T13:28:58;38.72;;;25.42;;
17239;SDS011;9943;54.378;18.604;2022-10-31T13:31:47;36.20;;;25.38;;
17239;SDS011;9943;54.378;18.604;2022-10-31T13:34:25;36.80;;;25.95;;
17239;SDS011;9943;54.378;18.604;2022-10-31T13:37:26;34.13;;;25.92;;
17239;SDS011;9943;54.378;18.604;2022-10-31T13:41:02;33.75;;;23.90;;
17239;SDS011;9943;54.378;18.604;2022-10-31T13:43:43;40.92;;;26.88;;
17239;SDS011;9943;54.378;18.604;2022-10-31T13:50:24;31.92;;;22.88;;
17239;SDS011;9943;54.378;18.604;2022-10-31T13:53:10;34.08;;;23.15;;
17239;SDS011;9943;54.378;18.604;2022-10-31T13:55:48;33.10;;;22.67;;
17239;SDS011;9943;54.378;18.604;2022-10-31T13:58:34;32.35;;;23.80;;
17239;SDS011;9943;54.378;18.604;2022-10-31T14:01:15;34.00;;;23.42;;
17239;SDS011;9943;54.378;18.604;2022-10-31T14:03:59;32.53;;;23.88;;
17239;SDS011;9943;54.378;18.604;2022-10-31T14:09:49;28.30;;;21.73;;
17239;SDS011;9943;54.378;18.604;2022-10-31T14:12:36;30.23;;;22.10;;
17239;SDS011;9943;54.378;18.604;2022-10-31T14:15:21;31.67;;;23.42;;
17239;SDS011;9943;54.378;18.604;2022-10-31T14:18:01;31.80;;;22.70;;
17239;SDS011;9943;54.378;18.604;2022-10-31T14:28:19;35.95;;;23.75;;
17239;SDS011;9943;54.378;18.604;2022-10-31T14:30:53;30.77;;;23.10;;
17239;SDS011;9943;54.378;18.604;2022-10-31T14:33:31;34.78;;;24.25;;
17239;SDS011;9943;54.378;18.604;2022-10-31T14:36:21;35.15;;;23.88;;
17239;SDS011;9943;54.378;18.604;2022-10-31T14:39:25;37.20;;;26.10;;
17239;SDS011;9943;54.378;18.604;2022-10-31T14:42:09;35.70;;;24.88;;
17239;SDS011;9943;54.378;18.604;2022-10-31T14:45:11;36.20;;;25.35;;
17239;SDS011;9943;54.378;18.604;2022-10-31T14:48:29;33.90;;;23.55;;
17239;SDS011;9943;54.378;18.604;2022-10-31T14:51:30;38.30;;;25.73;;
17239;SDS011;9943;54.378;18.604;2022-10-31T14:54:14;36.85;;;24.20;;
17239;SDS011;9943;54.378;18.604;2022-10-31T14:57:13;31.58;;;20.83;;
17239;SDS011;9943;54.378;18.604;2022-10-31T14:59:50;29.50;;;20.98;;
17239;SDS011;9943;54.378;18.604;2022-10-31T15:03:03;28.52;;;19.80;;
17239;SDS011;9943;54.378;18.604;2022-10-31T15:05:46;29.13;;;20.30;;
17239;SDS011;9943;54.378;18.604;2022-10-31T15:08:43;27.30;;;19.60;;
17239;SDS011;9943;54.378;18.604;2022-10-31T15:11:26;30.70;;;21.27;;
17239;SDS011;9943;54.378;18.604;2022-10-31T15:14:17;29.17;;;21.77;;
17239;SDS011;9943;54.378;18.604;2022-10-31T15:17:08;31.95;;;23.40;;
17239;SDS011;9943;54.378;18.604;2022-10-31T15:19:45;33.97;;;25.40;;
17239;SDS011;9943;54.378;18.604;2022-10-31T15:22:23;32.63;;;22.60;;
17239;SDS011;9943;54.378;18.604;2022-10-31T15:24:57;34.35;;;24.20;;
17239;SDS011;9943;54.378;18.604;2022-10-31T15:27:32;31.48;;;25.10;;
17239;SDS011;9943;54.378;18.604;2022-10-31T15:30:15;37.28;;;25.00;;
17239;SDS011;9943;54.378;18.604;2022-10-31T15:32:53;34.70;;;22.98;;
17239;SDS011;9943;54.378;18.604;2022-10-31T15:35:38;34.97;;;23.33;;
17239;SDS011;9943;54.378;18.604;2022-10-31T15:38:15;31.45;;;22.75;;
17239;SDS011;9943;54.378;18.604;2022-10-31T15:41:00;36.53;;;24.50;;
17239;SDS011;9943;54.378;18.604;2022-10-31T15:43:44;35.28;;;21.58;;
17239;SDS011;9943;54.378;18.604;2022-10-31T15:46:51;29.15;;;20.40;;
17239;SDS011;9943;54.378;18.604;2022-10-31T15:49:47;29.95;;;19.60;;
17239;SDS011;9943;54.378;18.604;2022-10-31T15:56:28;34.22;;;21.35;;
17239;SDS011;9943;54.378;18.604;2022-10-31T15:59:11;26.13;;;17.73;;
17239;SDS011;9943;54.378;18.604;2022-10-31T16:04:48;25.13;;;17.98;;
17239;SDS011;9943;54.378;18.604;2022-10-31T16:07:36;28.40;;;19.08;;
17239;SDS011;9943;54.378;18.604;2022-10-31T16:27:24;27.05;;;17.70;;
17239;SDS011;9943;54.378;18.604;2022-10-31T16:30:02;26.00;;;17.52;;
17239;SDS011;9943;54.378;18.604;2022-10-31T16:33:05;26.90;;;17.90;;
17239;SDS011;9943;54.378;18.604;2022-10-31T16:39:01;25.52;;;17.55;;
17239;SDS011;9943;54.378;18.604;2022-10-31T16:41:37;24.85;;;17.55;;
17239;SDS011;9943;54.378;18.604;2022-10-31T16:44:31;24.13;;;17.48;;
17239;SDS011;9943;54.378;18.604;2022-10-31T16:47:12;25.83;;;16.58;;
17239;SDS011;9943;54.378;18.604;2022-10-31T16:53:26;28.00;;;17.35;;
17239;SDS011;9943;54.378;18.604;2022-10-31T16:56:01;24.98;;;17.15;;
17239;SDS011;9943;54.378;18.604;2022-10-31T16:58:52;22.38;;;17.05;;
17239;SDS011;9943;54.378;18.604;2022-10-31T17:01:34;25.10;;;17.25;;
17239;SDS011;9943;54.378;18.604;2022-10-31T17:05:10;26.25;;;16.02;;
17239;SDS011;9943;54.378;18.604;2022-10-31T17:08:05;23.98;;;16.35;;
17239;SDS011;9943;54.378;18.604;2022-10-31T17:10:38;22.15;;;17.50;;
17239;SDS011;9943;54.378;18.604;2022-10-31T17:13:16;28.25;;;18.13;;
17239;SDS011;9943;54.378;18.604;2022-10-31T17:16:07;22.25;;;16.15;;
17239;SDS011;9943;54.378;18.604;2022-10-31T17:18:50;29.17;;;19.55;;
17239;SDS011;9943;54.378;18.604;2022-10-31T17:22:03;28.48;;;19.52;;
17239;SDS011;9943;54.378;18.604;2022-10-31T17:25:33;21.75;;;15.40;;
17239;SDS011;9943;54.378;18.604;2022-10-31T17:28:21;20.15;;;14.07;;
17239;SDS011;9943;54.378;18.604;2022-10-31T17:31:31;20.58;;;15.07;;
17239;SDS011;9943;54.378;18.604;2022-10-31T17:34:31;20.17;;;14.57;;
17239;SDS011;9943;54.378;18.604;2022-10-31T17:37:08;19.80;;;15.00;;
17239;SDS011;9943;54.378;18.604;2022-10-31T17:39:57;23.08;;;13.95;;
17239;SDS011;9943;54.378;18.604;2022-10-31T17:42:34;19.85;;;14.57;;
17239;SDS011;9943;54.378;18.604;2022-10-31T17:51:44;27.17;;;19.80;;
17239;SDS011;9943;54.378;18.604;2022-10-31T17:57:20;27.58;;;18.08;;
17239;SDS011;9943;54.378;18.604;2022-10-31T18:00:08;26.20;;;17.65;;
17239;SDS011;9943;54.378;18.604;2022-10-31T18:02:56;27.50;;;16.55;;
17239;SDS011;9943;54.378;18.604;2022-10-31T18:05:33;26.77;;;18.90;;
17239;SDS011;9943;54.378;18.604;2022-10-31T18:08:19;20.98;;;15.55;;
17239;SDS011;9943;54.378;18.604;2022-10-31T18:11:10;19.70;;;14.73;;
17239;SDS011;9943;54.378;18.604;2022-10-31T18:13:46;22.70;;;15.93;;
17239;SDS011;9943;54.378;18.604;2022-10-31T18:16:19;27.00;;;17.20;;
17239;SDS011;9943;54.378;18.604;2022-10-31T18:18:54;21.95;;;16.25;;
17239;SDS011;9943;54.378;18.604;2022-10-31T18:21:35;25.20;;;17.85;;
17239;SDS011;9943;54.378;18.604;2022-10-31T18:24:17;22.88;;;17.02;;
17239;SDS011;9943;54.378;18.604;2022-10-31T18:27:03;23.85;;;17.67;;
17239;SDS011;9943;54.378;18.604;2022-10-31T18:30:09;25.55;;;19.92;;
17239;SDS011;9943;54.378;18.604;2022-10-31T18:35:55;27.52;;;20.55;;
17239;SDS011;9943;54.378;18.604;2022-10-31T18:38:39;29.55;;;22.02;;
17239;SDS011;9943;54.378;18.604;2022-10-31T18:41:21;25.27;;;19.02;;
17239;SDS011;9943;54.378;18.604;2022-10-31T18:43:59;26.58;;;17.95;;
17239;SDS011;9943;54.378;18.604;2022-10-31T18:46:33;24.85;;;17.60;;
17239;SDS011;9943;54.378;18.604;2022-10-31T18:49:39;24.73;;;17.60;;
17239;SDS011;9943;54.378;18.604;2022-10-31T18:52:18;27.45;;;18.20;;
17239;SDS011;9943;54.378;18.604;2022-10-31T18:54:50;23.83;;;17.95;;
17239;SDS011;9943;54.378;18.604;2022-10-31T18:57:23;22.38;;;16.95;;
17239;SDS011;9943;54.378;18.604;2022-10-31T19:00:10;26.27;;;18.52;;
17239;SDS011;9943;54.378;18.604;2022-10-31T19:03:28;24.58;;;18.27;;
17239;SDS011;9943;54.378;18.604;2022-10-31T19:06:11;29.50;;;18.38;;
17239;SDS011;9943;54.378;18.604;2022-10-31T19:09:12;24.90;;;16.80;;
17239;SDS011;9943;54.378;18.604;2022-10-31T19:11:57;25.50;;;18.55;;
17239;SDS011;9943;54.378;18.604;2022-10-31T19:14:28;37.05;;;27.15;;
17239;SDS011;9943;54.378;18.604;2022-10-31T19:17:10;30.42;;;22.50;;
17239;SDS011;9943;54.378;18.604;2022-10-31T19:19:43;26.85;;;19.95;;
17239;SDS011;9943;54.378;18.604;2022-10-31T19:25:24;28.23;;;19.20;;